Time;durP1;ratioP1;P1;durP2;ratioP2;P2;SDS_P1;SDS_P2;PMS_P1;PMS_P2;Temp;Humidity;BMP_temperature;BMP_pressure;BME280_temperature;BME280_humidity;BME280_pressure;Samples;Min_cycle;Max_cycle;Signal;HPM_P1;HPM_P2
2023/05/09 00:00:42;;;;;;;7.55;5.82;;;15.70;99.90;;;;;;7401361;19;19919;-70
2023/05/09 00:03:14;;;;;;;8.80;6.47;;;15.70;99.90;;;;;;7400834;19;20372;-68
2023/05/09 00:05:43;;;;;;;8.13;6.00;;;15.70;99.90;;;;;;7402263;19;19967;-68
2023/05/09 00:08:12;;;;;;;5.47;4.85;;;15.60;99.90;;;;;;7400831;19;19929;-68
2023/05/09 00:10:41;;;;;;;8.77;6.13;;;15.40;99.90;;;;;;7400777;19;19923;-68
2023/05/09 00:13:10;;;;;;;7.50;5.38;;;15.40;99.90;;;;;;7400446;19;19915;-68
2023/05/09 00:15:39;;;;;;;6.07;4.93;;;15.50;99.90;;;;;;7401709;19;19923;-69
2023/05/09 00:18:10;;;;;;;6.57;5.60;;;15.40;99.90;;;;;;7400166;19;20367;-68
2023/05/09 00:20:43;;;;;;;8.65;6.00;;;15.60;99.90;;;;;;7401188;19;20338;-68
2023/05/09 00:23:12;;;;;;;7.15;5.28;;;15.60;99.90;;;;;;7400895;19;19923;-68
2023/05/09 00:25:40;;;;;;;8.75;5.43;;;15.50;99.90;;;;;;7401906;19;19918;-68
2023/05/09 00:28:09;;;;;;;7.80;5.07;;;15.50;99.90;;;;;;7400501;19;19919;-68
2023/05/09 00:30:41;;;;;;;;;;;15.50;99.90;;;;;;7400547;19;19946;-68
2023/05/09 00:33:10;;;;;;;9.20;5.53;;;15.50;99.90;;;;;;7391744;19;20275;-68
2023/05/09 00:35:42;;;;;;;7.68;5.20;;;15.40;99.90;;;;;;7402033;19;19911;-68
2023/05/09 00:38:11;;;;;;;6.03;5.13;;;15.50;99.90;;;;;;7399606;19;19922;-68
2023/05/09 00:40:40;;;;;;;7.95;4.97;;;15.40;99.90;;;;;;7397908;19;19933;-69
2023/05/09 00:43:09;;;;;;;6.65;4.85;;;15.40;99.90;;;;;;7396827;19;19918;-68
2023/05/09 00:45:38;;;;;;;6.82;5.13;;;15.50;99.90;;;;;;7397520;19;19919;-68
2023/05/09 00:48:07;;;;;;;8.90;5.03;;;15.40;99.90;;;;;;7400344;19;20395;-68
2023/05/09 00:50:37;;;;;;;7.75;5.35;;;15.40;99.90;;;;;;7398508;19;20367;-68
2023/05/09 00:53:09;;;;;;;6.60;4.95;;;15.40;99.90;;;;;;7399925;19;19926;-68
2023/05/09 00:55:38;;;;;;;7.38;5.15;;;15.30;99.90;;;;;;7399172;19;20267;-68
2023/05/09 00:58:06;;;;;;;6.47;4.90;;;15.40;99.90;;;;;;7400306;19;19942;-68
2023/05/09 01:00:35;;;;;;;7.85;5.18;;;15.30;99.90;;;;;;7400392;19;19941;-68
2023/05/09 01:03:06;;;;;;;7.60;5.70;;;15.30;99.90;;;;;;7399508;19;20400;-68
2023/05/09 01:05:42;;;;;;;6.53;5.07;;;15.30;99.90;;;;;;7399840;19;19930;-68
2023/05/09 01:08:22;;;;;;;8.43;5.25;;;15.30;99.90;;;;;;7398358;19;19915;-68
2023/05/09 01:10:58;;;;;;;6.13;5.00;;;15.20;99.90;;;;;;7397177;19;19925;-68
2023/05/09 01:13:33;;;;;;;6.97;4.82;;;15.20;99.90;;;;;;7406238;19;19926;-68
2023/05/09 01:16:08;;;;;;;7.07;5.15;;;15.10;99.90;;;;;;7405345;19;20414;-68
2023/05/09 01:18:44;;;;;;;6.65;5.30;;;15.10;99.90;;;;;;7406472;19;19995;-68
2023/05/09 01:21:18;;;;;;;7.50;5.00;;;15.20;99.90;;;;;;7405953;19;19937;-68
2023/05/09 01:24:14;;;;;;;6.22;4.88;;;15.30;99.90;;;;;;7406034;19;19934;-68
2023/05/09 01:26:48;;;;;;;7.78;5.25;;;15.30;99.90;;;;;;7406315;19;19923;-68
2023/05/09 01:29:38;;;;;;;7.55;4.95;;;15.20;99.90;;;;;;7405201;19;19931;-68
2023/05/09 01:32:11;;;;;;;7.32;5.15;;;14.80;99.90;;;;;;7403877;19;20019;-68
2023/05/09 01:34:44;;;;;;;8.65;4.90;;;15.10;99.90;;;;;;7406357;19;20340;-68
2023/05/09 01:37:17;;;;;;;7.20;5.40;;;15.00;99.90;;;;;;7403950;19;20466;-68
2023/05/09 01:39:50;;;;;;;8.45;5.90;;;15.00;99.90;;;;;;7405254;19;20273;-68
2023/05/09 01:42:22;;;;;;;6.30;4.95;;;15.00;99.90;;;;;;7404585;19;19928;-68
2023/05/09 01:44:55;;;;;;;6.93;5.15;;;14.90;99.90;;;;;;7406544;19;19926;-67
2023/05/09 01:47:25;;;;;;;9.38;5.57;;;15.00;99.90;;;;;;7405074;19;19941;-67
2023/05/09 01:49:56;;;;;;;8.32;5.28;;;14.90;99.90;;;;;;7404171;19;19927;-68
2023/05/09 01:52:27;;;;;;;8.13;5.20;;;15.00;99.90;;;;;;7403675;19;19932;-68
2023/05/09 01:54:56;;;;;;;8.32;5.45;;;15.00;99.90;;;;;;7401946;19;20381;-68
2023/05/09 01:57:26;;;;;;;9.55;6.00;;;14.90;99.90;;;;;;7403910;19;19922;-68
2023/05/09 01:59:59;;;;;;;7.43;5.43;;;14.90;99.90;;;;;;7403975;19;19941;-67
2023/05/09 02:02:30;;;;;;;7.57;5.30;;;14.80;99.90;;;;;;7402846;19;19999;-68
2023/05/09 02:05:00;;;;;;;10.20;5.60;;;15.10;99.90;;;;;;7402915;19;19918;-67
2023/05/09 02:07:31;;;;;;;8.40;5.32;;;14.90;99.90;;;;;;7402209;19;19927;-68
2023/05/09 02:10:00;;;;;;;7.28;5.25;;;14.80;99.90;;;;;;7402645;19;19918;-68
2023/05/09 02:12:29;;;;;;;7.38;5.18;;;14.70;99.90;;;;;;7401708;19;19937;-68
2023/05/09 02:15:01;;;;;;;7.63;4.90;;;14.70;99.90;;;;;;7403324;19;19929;-67
2023/05/09 02:17:31;;;;;;;7.10;5.35;;;14.60;99.90;;;;;;7401487;19;20028;-68
2023/05/09 02:20:00;;;;;;;8.07;5.57;;;14.60;99.90;;;;;;7401999;19;19922;-67
2023/05/09 02:22:29;;;;;;;8.38;5.50;;;14.50;99.90;;;;;;7398915;19;19922;-67
2023/05/09 02:24:59;;;;;;;7.85;5.60;;;14.70;99.90;;;;;;7400383;19;19930;-67
2023/05/09 02:27:29;;;;;;;8.18;6.03;;;14.70;99.90;;;;;;7402225;19;19930;-67
2023/05/09 02:30:03;;;;;;;7.97;5.88;;;14.80;99.90;;;;;;7402054;19;19934;-67
2023/05/09 02:32:34;;;;;;;7.45;5.45;;;14.70;99.90;;;;;;7400840;19;19926;-68
2023/05/09 02:35:04;;;;;;;7.57;5.50;;;14.60;99.90;;;;;;7402341;19;19922;-68
2023/05/09 02:37:35;;;;;;;8.93;5.68;;;14.70;99.90;;;;;;7403704;19;19931;-67
2023/05/09 02:40:04;;;;;;;8.60;5.88;;;14.80;99.90;;;;;;7399561;19;20565;-68
2023/05/09 02:42:33;;;;;;;7.43;5.57;;;14.70;99.90;;;;;;7404310;19;19914;-68
2023/05/09 02:45:06;;;;;;;8.13;6.28;;;14.70;99.90;;;;;;7401983;19;19926;-67
2023/05/09 02:47:35;;;;;;;8.63;5.97;;;14.70;99.90;;;;;;7405594;19;19925;-67
2023/05/09 02:50:05;;;;;;;8.02;5.68;;;14.70;99.90;;;;;;7403363;19;19928;-67
2023/05/09 02:52:34;;;;;;;7.65;5.93;;;14.60;99.90;;;;;;7403823;19;19923;-68
2023/05/09 02:55:03;;;;;;;7.32;6.18;;;14.70;99.90;;;;;;7400962;19;19925;-68
2023/05/09 02:57:32;;;;;;;9.40;6.28;;;14.80;99.90;;;;;;7404175;19;19928;-67
2023/05/09 03:00:07;;;;;;;8.20;6.47;;;14.70;99.90;;;;;;7403290;19;19919;-67
2023/05/09 03:02:36;;;;;;;9.00;5.93;;;14.70;99.90;;;;;;7402958;19;19927;-68
2023/05/09 03:05:07;;;;;;;9.63;6.15;;;14.70;99.90;;;;;;7403027;19;19923;-68
2023/05/09 03:07:36;;;;;;;8.43;6.28;;;14.80;99.90;;;;;;7400989;19;20255;-67
2023/05/09 03:10:06;;;;;;;7.95;5.72;;;14.80;99.90;;;;;;7403110;19;19934;-68
2023/05/09 03:12:34;;;;;;;7.63;5.57;;;14.70;99.90;;;;;;7402447;19;20233;-68
2023/05/09 03:15:07;;;;;;;10.00;6.60;;;14.70;99.90;;;;;;7402473;19;19925;-68
2023/05/09 03:17:36;;;;;;;10.38;5.82;;;14.70;99.90;;;;;;7402619;19;19923;-68
2023/05/09 03:20:06;;;;;;;9.07;6.38;;;14.50;99.90;;;;;;7402642;19;19921;-68
2023/05/09 03:22:35;;;;;;;7.70;5.70;;;14.70;99.90;;;;;;7403800;19;19944;-68
2023/05/09 03:25:05;;;;;;;9.77;6.60;;;14.50;99.90;;;;;;7401313;19;19926;-68
2023/05/09 03:27:34;;;;;;;8.75;6.40;;;14.60;99.90;;;;;;7402740;19;20447;-68
2023/05/09 03:30:06;;;;;;;8.55;6.20;;;14.50;99.90;;;;;;7402046;19;20339;-68
2023/05/09 03:32:35;;;;;;;9.60;6.05;;;14.60;99.90;;;;;;7400746;19;20345;-69
2023/05/09 03:35:04;;;;;;;10.05;6.20;;;14.50;99.90;;;;;;7402143;19;20344;-68
2023/05/09 03:37:33;;;;;;;9.88;6.40;;;14.50;99.90;;;;;;7403842;19;19921;-68
2023/05/09 03:40:02;;;;;;;9.45;6.97;;;14.50;99.90;;;;;;7401003;19;19929;-68
2023/05/09 03:42:31;;;;;;;11.05;6.78;;;14.50;99.90;;;;;;7401516;19;19922;-68
2023/05/09 03:45:00;;;;;;;10.43;6.90;;;14.50;99.90;;;;;;7399620;19;19926;-68
2023/05/09 03:47:32;;;;;;;9.98;7.30;;;14.60;99.90;;;;;;7399461;19;19923;-69
2023/05/09 03:50:00;;;;;;;11.18;7.30;;;14.70;99.90;;;;;;7401524;19;20351;-69
2023/05/09 03:52:29;;;;;;;11.60;7.60;;;14.50;99.90;;;;;;7399411;19;19923;-68
2023/05/09 03:54:58;;;;;;;10.93;7.18;;;14.50;99.90;;;;;;7398411;19;19919;-69
2023/05/09 03:57:27;;;;;;;9.85;7.22;;;14.50;99.90;;;;;;7398332;19;19915;-68
2023/05/09 03:59:56;;;;;;;10.02;6.80;;;14.50;99.90;;;;;;7399627;19;20352;-68
2023/05/09 04:02:25;;;;;;;9.88;6.45;;;14.60;99.90;;;;;;7401407;19;19922;-68
2023/05/09 04:04:56;;;;;;;11.13;6.93;;;14.50;99.90;;;;;;7402026;19;19919;-69
2023/05/09 04:07:27;;;;;;;11.85;6.95;;;14.70;99.90;;;;;;7401380;19;19933;-68
2023/05/09 04:09:57;;;;;;;9.25;6.55;;;14.50;99.90;;;;;;7401270;19;20310;-69
2023/05/09 04:12:26;;;;;;;13.88;7.80;;;14.60;99.90;;;;;;7400217;19;20386;-68
2023/05/09 04:14:54;;;;;;;11.52;8.00;;;14.60;99.90;;;;;;7402157;19;19925;-69
2023/05/09 04:17:23;;;;;;;13.07;7.78;;;14.50;99.90;;;;;;7402835;19;19925;-69
2023/05/09 04:19:52;;;;;;;14.10;8.18;;;14.30;99.90;;;;;;7402642;19;20357;-68
2023/05/09 04:22:24;;;;;;;13.20;8.20;;;14.50;99.90;;;;;;7399764;19;19929;-69
2023/05/09 04:24:53;;;;;;;;;;;14.50;99.90;;;;;;7402653;19;19938;-68
2023/05/09 04:27:22;;;;;;;16.40;8.57;;;14.50;99.90;;;;;;7400445;19;19926;-68
2023/05/09 04:29:52;;;;;;;13.25;9.13;;;14.50;99.90;;;;;;7400530;19;19922;-69
2023/05/09 04:32:22;;;;;;;14.50;9.43;;;14.40;99.90;;;;;;7397991;19;19922;-68
2023/05/09 04:34:51;;;;;;;13.27;8.90;;;14.50;99.90;;;;;;7399450;19;19926;-69
2023/05/09 04:37:19;;;;;;;15.65;9.32;;;14.50;99.90;;;;;;7400672;19;19957;-66
2023/05/09 04:39:51;;;;;;;12.90;9.27;;;14.50;99.90;;;;;;7401042;19;19915;-66
2023/05/09 04:42:20;;;;;;;14.82;10.45;;;14.60;99.90;;;;;;7399838;19;19925;-69
2023/05/09 04:44:50;;;;;;;16.75;10.63;;;14.40;99.90;;;;;;7399867;19;20263;-69
2023/05/09 04:47:19;;;;;;;15.07;9.77;;;14.60;99.90;;;;;;7397853;19;19994;-69
2023/05/09 04:49:48;;;;;;;14.45;10.45;;;14.50;99.90;;;;;;7399054;19;20268;-66
2023/05/09 04:52:17;;;;;;;14.23;10.50;;;14.40;99.90;;;;;;7399288;19;19923;-67
2023/05/09 04:54:46;;;;;;;16.08;10.48;;;14.60;99.90;;;;;;7399453;19;19978;-69
2023/05/09 04:57:17;;;;;;;14.48;10.30;;;14.40;99.90;;;;;;7401075;19;19933;-69
2023/05/09 04:59:46;;;;;;;18.50;11.55;;;14.40;99.90;;;;;;7400136;19;19926;-67
2023/05/09 05:02:15;;;;;;;18.00;11.10;;;14.60;99.90;;;;;;7399817;19;19922;-67
2023/05/09 05:04:44;;;;;;;16.70;10.82;;;14.60;99.90;;;;;;7400054;19;19922;-69
2023/05/09 05:07:13;;;;;;;13.32;9.70;;;14.60;99.90;;;;;;7400457;19;19918;-69
2023/05/09 05:09:42;;;;;;;14.82;10.25;;;14.60;99.90;;;;;;7399126;19;19915;-68
2023/05/09 05:12:12;;;;;;;15.35;11.07;;;14.30;99.90;;;;;;7400116;19;19949;-69
2023/05/09 05:14:43;;;;;;;15.82;10.05;;;14.40;99.90;;;;;;7399591;19;19918;-69
2023/05/09 05:17:12;;;;;;;17.42;10.85;;;14.50;99.90;;;;;;7398457;19;19927;-69
2023/05/09 05:19:41;;;;;;;17.02;11.40;;;14.60;99.90;;;;;;7399725;19;20016;-68
2023/05/09 05:22:10;;;;;;;14.68;10.00;;;14.50;99.90;;;;;;7398928;19;19922;-68
2023/05/09 05:24:39;;;;;;;17.25;11.02;;;14.60;99.90;;;;;;7398871;19;19915;-68
2023/05/09 05:27:08;;;;;;;17.58;11.18;;;14.70;99.90;;;;;;7399019;19;19935;-69
2023/05/09 05:29:37;;;;;;;18.23;11.65;;;14.50;99.90;;;;;;7399207;19;19922;-69
2023/05/09 05:32:09;;;;;;;17.48;10.95;;;14.60;99.90;;;;;;7398220;19;19933;-68
2023/05/09 05:34:38;;;;;;;15.32;10.73;;;14.40;99.90;;;;;;7396368;19;19956;-68
2023/05/09 05:37:07;;;;;;;15.43;10.60;;;14.50;99.90;;;;;;7395623;19;19919;-69
2023/05/09 05:39:36;;;;;;;15.55;10.98;;;14.60;99.90;;;;;;7395315;19;19936;-68
2023/05/09 05:42:05;;;;;;;15.88;10.52;;;14.40;99.90;;;;;;7398473;19;19925;-68
2023/05/09 05:44:34;;;;;;;15.18;10.73;;;14.60;99.90;;;;;;7396630;19;19929;-68
2023/05/09 05:47:03;;;;;;;17.25;11.05;;;14.60;99.90;;;;;;7397500;19;19925;-68
2023/05/09 05:49:34;;;;;;;16.48;11.30;;;14.50;99.90;;;;;;7398453;19;19922;-68
2023/05/09 05:52:03;;;;;;;17.13;10.82;;;14.60;99.90;;;;;;7396608;19;19968;-68
2023/05/09 05:54:32;;;;;;;16.05;10.32;;;14.50;99.90;;;;;;7394118;19;19978;-67
2023/05/09 05:57:01;;;;;;;18.02;11.40;;;14.80;99.90;;;;;;7395053;19;19922;-67
2023/05/09 05:59:30;;;;;;;15.27;10.63;;;14.80;99.90;;;;;;7402478;19;19925;-67
2023/05/09 06:01:59;;;;;;;15.45;10.13;;;14.70;99.90;;;;;;7399007;19;20351;-67
2023/05/09 06:04:28;;;;;;;16.58;11.70;;;14.80;99.90;;;;;;7396163;19;19989;-68
2023/05/09 06:06:59;;;;;;;15.43;10.43;;;14.50;99.90;;;;;;7402943;19;19919;-68
2023/05/09 06:09:28;;;;;;;13.55;10.05;;;14.80;99.90;;;;;;7400077;19;19985;-68
2023/05/09 06:11:58;;;;;;;15.68;10.32;;;14.90;99.90;;;;;;7403119;19;19950;-67
2023/05/09 06:14:27;;;;;;;16.92;10.60;;;14.70;99.90;;;;;;7402701;19;20364;-68
2023/05/09 06:16:56;;;;;;;15.48;10.52;;;14.70;99.90;;;;;;7404462;19;19926;-68
2023/05/09 06:19:25;;;;;;;17.27;10.00;;;14.90;99.90;;;;;;7401729;19;19922;-67
2023/05/09 06:21:54;;;;;;;16.08;10.77;;;14.80;99.90;;;;;;7402055;19;19928;-67
2023/05/09 06:24:26;;;;;;;14.30;9.95;;;14.80;99.90;;;;;;7402582;19;19930;-67
2023/05/09 06:26:54;;;;;;;;;;;14.80;99.90;;;;;;7406483;19;20265;-67
2023/05/09 06:29:23;;;;;;;19.63;10.60;;;14.80;99.90;;;;;;7404221;19;19941;-67
2023/05/09 06:31:52;;;;;;;14.43;9.82;;;14.70;99.90;;;;;;7401389;19;20355;-68
2023/05/09 06:34:21;;;;;;;15.45;10.27;;;14.80;99.90;;;;;;7399821;19;20354;-67
2023/05/09 06:36:50;;;;;;;14.50;9.55;;;14.90;99.90;;;;;;7404389;19;20202;-67
2023/05/09 06:39:19;;;;;;;14.88;9.82;;;15.00;99.90;;;;;;7402000;19;20339;-66
2023/05/09 06:41:50;;;;;;;14.52;10.00;;;15.00;99.90;;;;;;7403850;19;19989;-66
2023/05/09 06:44:19;;;;;;;14.45;10.18;;;14.90;99.90;;;;;;7403449;19;19934;-68
2023/05/09 06:46:49;;;;;;;12.93;9.27;;;14.90;99.90;;;;;;7403051;19;19918;-67
2023/05/09 06:49:18;;;;;;;15.63;9.82;;;15.10;99.90;;;;;;7404426;19;19918;-67
2023/05/09 06:51:46;;;;;;;13.85;10.10;;;15.10;99.90;;;;;;7402289;19;19983;-68
2023/05/09 06:54:16;;;;;;;14.18;9.63;;;15.10;99.90;;;;;;7402063;19;19929;-67
2023/05/09 06:56:44;;;;;;;15.27;10.13;;;15.10;99.90;;;;;;7402395;19;19934;-67
2023/05/09 06:59:16;;;;;;;14.15;10.02;;;15.00;99.90;;;;;;7404064;19;19922;-67
2023/05/09 07:01:45;;;;;;;13.32;9.80;;;15.30;99.90;;;;;;7403879;19;19915;-67
2023/05/09 07:04:14;;;;;;;16.33;9.88;;;15.20;99.90;;;;;;7403161;19;19934;-67
2023/05/09 07:06:43;;;;;;;15.73;9.85;;;15.20;99.90;;;;;;7402955;19;19926;-67
2023/05/09 07:09:14;;;;;;;13.85;10.18;;;15.20;99.90;;;;;;7400332;19;19922;-67
2023/05/09 07:11:43;;;;;;;13.93;10.20;;;15.20;99.90;;;;;;7401278;19;19926;-68
2023/05/09 07:14:12;;;;;;;16.65;10.25;;;15.30;99.90;;;;;;7402358;19;20660;-67
2023/05/09 07:16:45;;;;;;;14.68;10.02;;;15.40;99.90;;;;;;7403870;19;19924;-67
2023/05/09 07:19:14;;;;;;;15.45;9.90;;;15.40;99.90;;;;;;7402307;19;19922;-67
2023/05/09 07:21:43;;;;;;;14.18;10.68;;;15.30;99.90;;;;;;7402365;19;19918;-67
2023/05/09 07:24:12;;;;;;;14.07;10.30;;;15.40;99.90;;;;;;7402111;19;19923;-67
2023/05/09 07:26:41;;;;;;;12.38;8.98;;;15.40;99.90;;;;;;7403410;19;20189;-67
2023/05/09 07:29:10;;;;;;;13.75;9.75;;;15.40;99.90;;;;;;7402060;19;20036;-68
2023/05/09 07:31:38;;;;;;;15.32;10.43;;;15.30;99.90;;;;;;7402832;19;19986;-67
2023/05/09 07:34:10;;;;;;;14.55;10.20;;;15.30;99.90;;;;;;7400121;19;19965;-67
2023/05/09 07:36:39;;;;;;;13.50;9.45;;;15.50;99.90;;;;;;7402477;19;19989;-67
2023/05/09 07:39:09;;;;;;;16.77;10.88;;;15.40;99.90;;;;;;7400509;19;19986;-67
2023/05/09 07:41:38;;;;;;;15.50;10.50;;;15.60;99.90;;;;;;7400447;19;19933;-67
2023/05/09 07:44:08;;;;;;;14.68;10.35;;;15.50;99.90;;;;;;7401957;19;20275;-67
2023/05/09 07:46:39;;;;;;;15.52;10.60;;;15.50;99.90;;;;;;7401279;19;19922;-67
2023/05/09 07:49:10;;;;;;;16.48;10.25;;;15.50;99.90;;;;;;7401623;19;19922;-67
2023/05/09 07:51:40;;;;;;;15.85;10.73;;;15.60;99.90;;;;;;7400645;19;19934;-67
2023/05/09 07:54:09;;;;;;;19.35;11.77;;;15.60;99.90;;;;;;7399464;19;19926;-67
2023/05/09 07:56:38;;;;;;;17.83;11.35;;;15.60;99.90;;;;;;7398950;19;19922;-68
2023/05/09 07:59:07;;;;;;;18.20;12.10;;;15.30;99.90;;;;;;7402979;19;19926;-67
2023/05/09 08:01:35;;;;;;;15.85;10.55;;;15.40;99.90;;;;;;7401572;19;19919;-67
2023/05/09 08:04:05;;;;;;;15.88;10.73;;;15.50;99.90;;;;;;7401880;19;19922;-68
2023/05/09 08:06:37;;;;;;;17.42;11.25;;;15.30;99.90;;;;;;7401411;19;20010;-67
2023/05/09 08:09:06;;;;;;;20.17;12.75;;;15.40;99.90;;;;;;7401560;19;19919;-68
2023/05/09 08:11:37;;;;;;;20.80;13.30;;;15.40;99.90;;;;;;7401738;19;19934;-67
2023/05/09 08:14:06;;;;;;;17.35;12.73;;;15.30;99.90;;;;;;7400084;19;19935;-67
2023/05/09 08:16:36;;;;;;;20.48;12.35;;;15.40;99.90;;;;;;7401735;19;19918;-67
2023/05/09 08:19:05;;;;;;;23.63;13.05;;;15.60;99.90;;;;;;7400684;19;19910;-67
2023/05/09 08:21:36;;;;;;;20.27;13.55;;;15.60;99.90;;;;;;7397806;19;19926;-67
2023/05/09 08:24:06;;;;;;;21.95;14.13;;;15.50;99.90;;;;;;7400027;19;19922;-67
2023/05/09 08:26:35;;;;;;;20.52;11.98;;;15.50;99.90;;;;;;7401965;19;20272;-68
2023/05/09 08:29:04;;;;;;;21.33;12.43;;;15.70;99.90;;;;;;7400578;19;19929;-68
2023/05/09 08:31:33;;;;;;;22.35;14.82;;;15.60;99.90;;;;;;7397606;19;19933;-68
2023/05/09 08:34:02;;;;;;;21.40;13.45;;;15.60;99.90;;;;;;7397275;19;19924;-68
2023/05/09 08:36:31;;;;;;;24.52;14.60;;;15.50;99.90;;;;;;7399612;19;19922;-68
2023/05/09 08:39:03;;;;;;;37.22;18.67;;;15.50;99.90;;;;;;7402218;19;20347;-68
2023/05/09 08:41:35;;;;;;;37.50;18.85;;;15.40;99.90;;;;;;7401031;19;19928;-68
2023/05/09 08:44:05;;;;;;;38.38;18.98;;;15.40;99.90;;;;;;7399765;19;19918;-68
2023/05/09 08:46:40;;;;;;;41.72;19.10;;;15.20;99.90;;;;;;7399171;19;19921;-68
2023/05/09 08:49:10;;;;;;;38.10;16.85;;;15.20;99.90;;;;;;7400681;19;19970;-68
2023/05/09 08:51:40;;;;;;;38.20;18.27;;;15.30;99.90;;;;;;7399332;19;19939;-69
2023/05/09 08:54:12;;;;;;;34.40;16.88;;;15.30;99.90;;;;;;7397128;19;19938;-68
2023/05/09 08:56:42;;;;;;;41.95;18.50;;;15.20;99.90;;;;;;7400437;19;19930;-68
2023/05/09 08:59:11;;;;;;;41.70;18.85;;;15.20;99.90;;;;;;7398846;19;20024;-67
2023/05/09 09:01:42;;;;;;;36.03;18.50;;;15.40;99.90;;;;;;7396671;19;19929;-67
2023/05/09 09:04:12;;;;;;;39.38;19.55;;;15.20;99.90;;;;;;7396607;19;19925;-67
2023/05/09 09:06:42;;;;;;;35.75;18.33;;;15.30;99.90;;;;;;7400032;19;19965;-69
2023/05/09 09:09:15;;;;;;;36.65;18.70;;;15.50;99.90;;;;;;7398582;19;19926;-67
2023/05/09 09:11:45;;;;;;;35.00;17.65;;;15.50;99.90;;;;;;7399349;19;19986;-67
2023/05/09 09:14:24;;;;;;;37.45;18.08;;;15.60;99.90;;;;;;7394387;19;19930;-67
2023/05/09 09:16:56;;;;;;;33.97;17.35;;;15.60;99.90;;;;;;7397802;19;19919;-68
2023/05/09 09:19:29;;;;;;;32.85;17.40;;;15.60;99.90;;;;;;7397683;19;19935;-68
2023/05/09 09:22:01;;;;;;;35.55;18.60;;;15.70;99.90;;;;;;7395918;19;19931;-67
2023/05/09 09:24:33;;;;;;;35.92;19.02;;;15.90;99.90;;;;;;7393354;19;19922;-67
2023/05/09 09:27:07;;;;;;;38.42;19.00;;;15.80;99.90;;;;;;7394761;19;19930;-67
2023/05/09 09:29:37;;;;;;;34.67;17.33;;;15.90;99.90;;;;;;7395070;19;19919;-68
2023/05/09 09:32:07;;;;;;;32.97;18.85;;;16.10;99.90;;;;;;7396105;19;20400;-67
2023/05/09 09:34:37;;;;;;;36.22;19.25;;;16.30;99.90;;;;;;7403283;19;20392;-66
2023/05/09 09:37:08;;;;;;;34.25;19.05;;;16.10;99.90;;;;;;7400906;19;19938;-66
2023/05/09 09:39:41;;;;;;;35.60;18.90;;;16.30;99.90;;;;;;7403388;19;20383;-67
2023/05/09 09:42:14;;;;;;;36.28;18.77;;;16.40;99.90;;;;;;7397334;19;20276;-68
2023/05/09 09:44:43;;;;;;;36.17;19.40;;;16.40;99.90;;;;;;7404240;19;19926;-67
2023/05/09 09:47:13;;;;;;;36.40;19.13;;;16.40;99.90;;;;;;7405243;19;20322;-67
2023/05/09 09:49:48;;;;;;;36.17;18.38;;;16.60;99.90;;;;;;7402314;19;19915;-67
2023/05/09 09:52:26;;;;;;;36.10;18.67;;;16.80;99.90;;;;;;7401467;19;19950;-66
2023/05/09 09:55:00;;;;;;;43.67;19.35;;;16.50;99.90;;;;;;7402004;19;20374;-66
2023/05/09 09:57:36;;;;;;;34.38;17.67;;;16.80;99.90;;;;;;7404905;19;19919;-67
2023/05/09 10:00:07;;;;;;;39.45;18.95;;;16.70;99.90;;;;;;7402255;19;19930;-66
2023/05/09 10:02:36;;;;;;;32.17;17.83;;;16.70;99.90;;;;;;7401477;19;19919;-67
2023/05/09 10:05:11;;;;;;;37.40;19.20;;;16.70;99.90;;;;;;7403562;19;19926;-66
2023/05/09 10:07:40;;;;;;;38.30;18.85;;;16.60;99.90;;;;;;7404630;19;19930;-66
2023/05/09 10:10:12;;;;;;;34.92;19.20;;;16.40;99.90;;;;;;7399034;19;19954;-66
2023/05/09 10:12:42;;;;;;;35.80;18.98;;;16.50;99.90;;;;;;7400786;19;20270;-67
2023/05/09 10:15:12;;;;;;;38.65;19.40;;;17.80;99.90;;;;;;7403296;19;19937;-67
2023/05/09 10:17:41;;;;;;;39.03;19.35;;;16.40;99.90;;;;;;7406289;19;20291;-67
2023/05/09 10:20:14;;;;;;;41.25;19.65;;;16.40;99.90;;;;;;7403830;19;20352;-67
2023/05/09 10:22:43;;;;;;;40.30;20.45;;;16.30;99.90;;;;;;7403515;19;19922;-67
2023/05/09 10:25:19;;;;;;;38.13;19.02;;;16.50;99.90;;;;;;7402116;19;19921;-67
2023/05/09 10:27:49;;;;;;;42.60;20.27;;;16.30;99.90;;;;;;7405180;19;19930;-67
2023/05/09 10:30:21;;;;;;;44.75;20.92;;;16.30;99.90;;;;;;7403528;19;20400;-67
2023/05/09 10:32:54;;;;;;;46.58;22.00;;;16.10;99.90;;;;;;7393751;19;19929;-68
2023/05/09 10:35:27;;;;;;;45.40;22.00;;;16.20;99.90;;;;;;7402471;19;20355;-67
2023/05/09 10:37:58;;;;;;;48.47;21.83;;;16.10;99.90;;;;;;7404944;19;19927;-68
2023/05/09 10:40:30;;;;;;;52.03;22.65;;;16.10;99.90;;;;;;7404311;19;19918;-67
2023/05/09 10:42:59;;;;;;;47.30;20.63;;;16.20;99.90;;;;;;7402529;19;19926;-67
2023/05/09 10:45:29;;;;;;;46.20;21.20;;;16.10;99.90;;;;;;7402551;19;19922;-67
2023/05/09 10:48:00;;;;;;;47.97;21.90;;;16.20;99.90;;;;;;7403868;19;19918;-67
2023/05/09 10:50:29;;;;;;;43.40;20.80;;;16.30;99.90;;;;;;7404189;19;19923;-67
2023/05/09 10:53:14;;;;;;;48.28;21.05;;;16.70;99.90;;;;;;7401730;19;20288;-67
2023/05/09 10:55:55;;;;;;;45.60;21.10;;;16.40;99.90;;;;;;7403235;19;19927;-67
2023/05/09 10:58:27;;;;;;;48.80;22.73;;;16.40;99.90;;;;;;7403842;19;19961;-67
2023/05/09 11:00:58;;;;;;;45.38;21.08;;;16.50;99.90;;;;;;7401465;19;19928;-66
2023/05/09 11:03:29;;;;;;;45.22;21.75;;;16.20;99.90;;;;;;7401766;19;19922;-67
2023/05/09 11:05:59;;;;;;;48.47;21.70;;;16.30;99.90;;;;;;7402292;19;19931;-67
2023/05/09 11:08:29;;;;;;;49.80;21.92;;;16.30;99.90;;;;;;7401792;19;19940;-67
2023/05/09 11:11:07;;;;;;;48.33;21.85;;;16.30;99.90;;;;;;7401311;19;19923;-67
2023/05/09 11:13:39;;;;;;;54.90;23.05;;;16.40;99.90;;;;;;7401125;19;20321;-67
2023/05/09 11:16:12;;;;;;;49.03;21.98;;;16.50;99.90;;;;;;7403417;19;19926;-67
2023/05/09 11:18:55;;;;;;;51.78;22.20;;;16.70;99.90;;;;;;7402328;19;19922;-67
2023/05/09 11:21:25;;;;;;;48.00;21.75;;;16.90;99.90;;;;;;7402895;19;20018;-67
2023/05/09 11:23:53;;;;;;;44.30;21.33;;;16.70;99.90;;;;;;7401492;19;19940;-67
2023/05/09 11:26:31;;;;;;;50.78;23.27;;;16.90;99.90;;;;;;7401014;19;20259;-67
2023/05/09 11:29:01;;;;;;;;;;;16.90;99.90;;;;;;7404007;19;19927;-67
2023/05/09 11:31:30;;;;;;;49.00;22.77;;;16.90;99.90;;;;;;7402847;19;19917;-67
2023/05/09 11:34:05;;;;;;;45.28;22.23;;;16.90;99.90;;;;;;7399711;19;19929;-67
2023/05/09 11:36:35;;;;;;;40.63;22.45;;;16.90;99.90;;;;;;7400923;19;19958;-67
2023/05/09 11:39:07;;;;;;;46.33;22.92;;;17.00;99.90;;;;;;7401491;19;19946;-67
2023/05/09 11:41:47;;;;;;;45.85;22.67;;;17.00;99.90;;;;;;7401842;19;19995;-67
2023/05/09 11:44:18;;;;;;;47.58;22.42;;;17.10;99.90;;;;;;7402256;19;19914;-67
2023/05/09 11:46:47;;;;;;;44.95;22.52;;;17.20;99.90;;;;;;7401419;19;20280;-67
2023/05/09 11:49:18;;;;;;;52.10;25.38;;;17.20;99.90;;;;;;7402961;19;19996;-67
2023/05/09 11:51:47;;;;;;;48.80;24.20;;;17.30;99.90;;;;;;7401692;19;19978;-67
2023/05/09 11:54:16;;;;;;;47.25;23.83;;;17.30;99.90;;;;;;7400395;19;19933;-67
2023/05/09 11:56:47;;;;;;;53.03;24.95;;;17.40;99.90;;;;;;7397765;19;19986;-67
2023/05/09 11:59:17;;;;;;;;;;;17.50;99.90;;;;;;7400993;19;19926;-67
2023/05/09 12:01:47;;;;;;;47.78;22.77;;;17.70;99.90;;;;;;7401261;19;19929;-67
2023/05/09 12:04:16;;;;;;;52.47;25.35;;;17.70;99.90;;;;;;7400058;19;20001;-67
2023/05/09 12:06:49;;;;;;;50.70;25.40;;;17.90;99.90;;;;;;7401591;19;20310;-67
2023/05/09 12:09:18;;;;;;;55.83;25.80;;;17.90;99.90;;;;;;7400461;19;20463;-67
2023/05/09 12:11:53;;;;;;;45.92;23.80;;;17.90;99.90;;;;;;7400950;19;19922;-68
2023/05/09 12:14:29;;;;;;;53.60;24.60;;;17.80;99.90;;;;;;7399403;19;19937;-67
2023/05/09 12:16:59;;;;;;;51.38;25.38;;;17.80;99.90;;;;;;7401283;19;19930;-67
2023/05/09 12:19:29;;;;;;;56.15;26.85;;;17.80;99.90;;;;;;7400829;19;20256;-67
2023/05/09 12:21:59;;;;;;;59.10;26.38;;;18.00;99.90;;;;;;7400435;19;19919;-68
2023/05/09 12:24:28;;;;;;;54.75;26.80;;;18.20;99.90;;;;;;7400265;19;19922;-67
2023/05/09 12:27:01;;;;;;;54.42;25.52;;;18.10;99.90;;;;;;7401026;19;19939;-67
2023/05/09 12:29:30;;;;;;;54.45;25.33;;;18.00;99.90;;;;;;7400523;19;19922;-68
2023/05/09 12:32:00;;;;;;;56.60;25.70;;;18.20;99.90;;;;;;7398890;19;19915;-68
2023/05/09 12:34:30;;;;;;;52.53;24.25;;;18.20;99.90;;;;;;7399451;19;19982;-68
2023/05/09 12:37:02;;;;;;;57.03;27.25;;;18.30;99.90;;;;;;7400249;19;19981;-68
2023/05/09 12:39:31;;;;;;;48.88;24.88;;;18.20;99.90;;;;;;7400069;19;19944;-68
2023/05/09 12:42:02;;;;;;;54.35;24.92;;;18.30;99.90;;;;;;7399165;19;20348;-67
2023/05/09 12:44:31;;;;;;;50.42;25.50;;;18.10;99.90;;;;;;7399430;19;19918;-68
2023/05/09 12:47:02;;;;;;;50.65;24.27;;;18.20;99.90;;;;;;7401325;19;20264;-67
2023/05/09 12:49:31;;;;;;;57.50;24.80;;;18.00;99.90;;;;;;7402156;19;20280;-67
2023/05/09 12:52:01;;;;;;;51.47;26.20;;;18.10;99.90;;;;;;7400224;19;19922;-67